Coal Run, Ohio
Current Conditions -  °F | °C
As of 12:53 PM on Thursday 29 Jan 2015 (Local Time) from KPKB Reporting Station
Overcast Overcast  
Wind Chill: 33°   Ceiling: 6000
Heat Index: 40°   Visibility: 10mi
Dew Point: 35°   Wind: 12mph
Humidity: 83%   Direction: 190°S
Pressure: 29.89"   Gusts: NA
Location:  39.57°N, 81.58°W
Report Text: KPKB 291753Z 19010KT 10SM FEW050 OVC060 04/02 A2989 RMK AO2 RAE09 SLP129 P0000 60016 T00440017 10044 21006 58029
Loading
Personal Weather Stations






























Interactive Weather Map New forecast layout! Learn more

10-Day Weather Forecast

Advertisements
Track Severe Weather on mobile